首页
METAR-TAF:

METAR-TAF

机场 :

Eastman, 喬治亞, 美国

纬度: 32-12-59N, 经度: 083-07-43W, 海拔: 93米

当前天气观测

该预报发布于28分钟前的00:15 UTC
静风
温度 18°C
湿度 100%
气压 1016 hPa
能見度: 11.3公里
散云层高于8500英尺
阴天层高于11000英尺

METAR: KEZM 160015Z AUTO 00000KT 7SM RA SCT085 OVC110 18/18 A3001 RMK AO2 T01820177

时间: 20:43 (00:43 UTC)


TAF: 丢失

超过4000个机场的气象观测和天气预报(METAR&TAF报告)。

可查询的气象台以黄色和红色小点在地图上表示。

将鼠标移到小点上方,可查看气象台名称。

然后点击查看天气观测和预报。

如需切换地图:点击带黑十字的绿色按钮放大地图;点击带横线的绿色按钮缩小地图;或者点击绿色箭头查看邻近地区的地图。


METAR-TAF: